Aérodrome :
LOGIN :

S'inscrire | Disclaimer

   EN    FR    IT 

 










Légende :    VFR   VFR Marginal   IFR   IFR Intensif   IFR Très Intensif
Visi : 
Plafond : 
>= 8 km
>= 3000ft
5 à 8 km
1000 à 3000 ft
1500m à 5 km
500 à 1000 ft
800 à 1500m
200 à 500 ft
< 800m
< 200 ft
Symboles :   Orages  Brouillard  Fortes neiges  Fortes précipitations  Vent > 20 kt
SIGMETs :   Divers  Orages  Givrage  Turbulence  Onde Orograph.  Cendres Volcan.






- Altitude de l'aérodrome : 863 ft
- Code IATA : ZAZ


LEZG - Zaragoza Aragon

DERNIER METAR :
  • 261130Z 06003KT 020V090 7000 OVC016 12/10 Q1016

METARs EXPIRÉS :
  • 261100Z VRB02KT 5000 BR BKN017 OVC027 12/09 Q1017
  • 261030Z VRB02KT 4500 BR SCT014 OVC021 11/09 Q1017
  • 261000Z 03002KT 4000 BR OVC023 10/09 Q1016
  • 260930Z 00000KT 4000 BR BKN022 OVC028 10/08 Q1017
  • 260900Z 00000KT 3500 BR BKN020 OVC028 09/08 Q1016

TAF TAF LEZG
Valide du 26 à 12h jusqu'au 27 à 12h UTC


261100Z 2612/2712 12007KT 9999 BKN020 TX15/2613Z TN10/2706Z
TEMPO 2612/2708 2500 RA BR BKN010
PROB30
TEMPO 2700/2707 3000 TSRA BKN015 FEW020CB



MET'MAP, la Météo Aéronautique d'un coup d'oeil ! - Copyright ORBIFLY Décembre 2007 - Disclaimer

ORBIFLY MET'MAP TEAM :

Programmation & Développement : Alexandra Zaïnal
Sur une idée originale de : Baudouin d'Aumeries
Assistance à la programmation : Marc-Olivier Méhu
Soutien technique & logistique : Manuel Goepfert

Contact : metmap@orbifly.com




SOURCES & CREDITS :

   NOAA